Time;durP1;ratioP1;P1;durP2;ratioP2;P2;SDS_P1;SDS_P2;PMS_P1;PMS_P2;Temp;Humidity;BMP_temperature;BMP_pressure;BME280_temperature;BME280_humidity;BME280_pressure;Samples;Min_cycle;Max_cycle;Signal;HPM_P1;HPM_P2
2022/01/07 00:00:58;;;;;;;15.40;4.65;;;1.50;99.90;;;;;;5090047;28;20143;-43
2022/01/07 00:03:23;;;;;;;19.17;5.75;;;1.50;99.90;;;;;;5081755;28;20019;-44
2022/01/07 00:05:49;;;;;;;25.35;5.53;;;1.50;99.90;;;;;;5081330;28;20020;-44
2022/01/07 00:08:15;;;;;;;18.60;4.95;;;1.60;99.90;;;;;;5081991;28;21588;-44
2022/01/07 00:10:40;;;;;;;20.70;5.28;;;1.60;99.90;;;;;;5081483;28;20103;-45
2022/01/07 00:13:06;;;;;;;21.38;5.55;;;1.60;99.90;;;;;;5087288;28;20021;-45
2022/01/07 00:15:32;;;;;;;17.95;5.55;;;1.50;99.90;;;;;;5081131;28;20032;-45
2022/01/07 00:17:58;;;;;;;17.10;4.95;;;1.60;99.90;;;;;;5087219;28;20024;-44
2022/01/07 00:20:25;;;;;;;17.05;4.97;;;1.60;99.90;;;;;;5080523;28;20492;-44
2022/01/07 00:22:51;;;;;;;24.90;6.35;;;1.60;99.90;;;;;;5089304;28;20482;-45
2022/01/07 00:25:17;;;;;;;18.35;5.20;;;1.50;99.90;;;;;;5081078;28;20086;-45
2022/01/07 00:27:43;;;;;;;23.58;5.30;;;1.50;99.90;;;;;;5079623;28;20016;-45
2022/01/07 00:30:11;;;;;;;25.80;6.88;;;1.50;99.90;;;;;;5071421;28;20059;-44
2022/01/07 00:32:37;;;;;;;29.63;6.18;;;1.50;99.90;;;;;;5080968;28;20461;-44
2022/01/07 00:35:04;;;;;;;23.25;5.38;;;1.50;99.90;;;;;;5081487;28;20036;-44
2022/01/07 00:37:30;;;;;;;14.55;5.45;;;1.50;99.90;;;;;;5074979;28;20409;-44
2022/01/07 00:39:55;;;;;;;23.35;6.47;;;1.50;99.90;;;;;;5083153;28;20263;-46
2022/01/07 00:42:21;;;;;;;18.75;5.18;;;1.50;99.90;;;;;;5081251;28;20270;-46
2022/01/07 00:44:46;;;;;;;21.30;5.93;;;1.50;99.90;;;;;;5083836;28;20056;-45
2022/01/07 00:47:12;;;;;;;15.52;5.78;;;1.50;99.90;;;;;;5079519;28;20111;-45
2022/01/07 00:49:38;;;;;;;14.55;5.18;;;1.50;99.90;;;;;;5085304;28;20028;-44
2022/01/07 00:52:04;;;;;;;21.08;5.63;;;1.40;99.90;;;;;;5078444;28;20116;-44
2022/01/07 00:54:29;;;;;;;23.48;5.75;;;1.50;99.90;;;;;;5080262;28;20032;-45
2022/01/07 00:56:55;;;;;;;21.90;5.47;;;1.50;99.90;;;;;;5079236;28;20027;-46
2022/01/07 00:59:21;;;;;;;24.48;5.88;;;1.50;99.90;;;;;;5068080;28;20025;-45
2022/01/07 01:01:47;;;;;;;21.00;5.38;;;1.40;99.90;;;;;;5068136;28;20082;-45
2022/01/07 01:04:13;;;;;;;21.15;5.95;;;1.50;99.90;;;;;;5079306;28;20105;-45
2022/01/07 01:06:41;;;;;;;22.08;4.95;;;1.50;99.90;;;;;;5089420;28;20020;-45
2022/01/07 01:09:09;;;;;;;25.98;7.22;;;1.50;99.90;;;;;;5088569;28;20447;-45
2022/01/07 01:11:35;;;;;;;22.60;5.53;;;1.50;99.90;;;;;;5089190;28;20513;-44
2022/01/07 01:14:01;;;;;;;24.38;6.85;;;1.50;99.90;;;;;;5089148;28;20106;-46
2022/01/07 01:16:26;;;;;;;22.00;5.85;;;1.50;99.90;;;;;;5089388;28;20099;-48
2022/01/07 01:18:52;;;;;;;22.25;5.53;;;1.50;99.90;;;;;;5086943;28;20024;-44
2022/01/07 01:21:17;;;;;;;24.52;8.25;;;1.50;99.90;;;;;;5089215;28;20020;-44
2022/01/07 01:23:45;;;;;;;15.55;5.55;;;1.50;99.90;;;;;;5087285;28;20024;-45
2022/01/07 01:26:14;;;;;;;16.75;5.45;;;1.50;99.90;;;;;;5089132;28;20119;-44
2022/01/07 01:28:40;;;;;;;17.42;6.07;;;1.40;99.90;;;;;;5088127;28;20389;-46
2022/01/07 01:31:06;;;;;;;26.73;5.90;;;1.50;99.90;;;;;;5089139;28;20090;-44
2022/01/07 01:33:32;;;;;;;27.75;5.45;;;1.50;99.90;;;;;;5078020;28;20024;-44
2022/01/07 01:35:57;;;;;;;14.73;5.25;;;1.40;99.90;;;;;;5085295;28;20034;-47
2022/01/07 01:38:23;;;;;;;15.45;5.47;;;1.50;99.90;;;;;;5088018;28;20062;-45
2022/01/07 01:40:49;;;;;;;19.98;5.65;;;1.40;99.90;;;;;;5087987;28;20048;-44
2022/01/07 01:43:14;;;;;;;24.25;6.03;;;1.50;99.90;;;;;;5088994;28;20378;-45
2022/01/07 01:45:39;;;;;;;17.13;5.45;;;1.50;99.90;;;;;;5086398;28;20388;-44
2022/01/07 01:48:05;;;;;;;26.88;5.85;;;1.50;99.90;;;;;;5087833;28;20040;-44
2022/01/07 01:50:31;;;;;;;16.38;5.10;;;1.50;99.90;;;;;;5088082;28;20093;-44
2022/01/07 01:52:57;;;;;;;23.48;5.03;;;1.60;99.90;;;;;;5088401;28;20032;-45
2022/01/07 01:55:25;;;;;;;21.98;6.13;;;1.60;99.90;;;;;;5088400;28;20020;-44
2022/01/07 01:57:52;;;;;;;26.08;6.65;;;1.60;99.90;;;;;;5087637;28;20040;-44
2022/01/07 02:00:19;;;;;;;19.85;5.43;;;1.60;99.90;;;;;;5087997;28;20107;-45
2022/01/07 02:02:45;;;;;;;15.88;5.82;;;1.70;99.90;;;;;;5083251;28;20401;-44
2022/01/07 02:05:12;;;;;;;18.67;5.90;;;1.80;99.90;;;;;;5079990;28;20024;-44
2022/01/07 02:07:40;;;;;;;25.25;6.22;;;1.80;99.90;;;;;;5087511;28;20357;-45
2022/01/07 02:10:11;;;;;;;18.40;6.05;;;1.80;99.90;;;;;;5087977;28;20508;-45
2022/01/07 02:12:38;;;;;;;14.68;4.53;;;1.80;99.90;;;;;;5088134;28;20038;-45
2022/01/07 02:15:04;;;;;;;16.08;5.05;;;1.90;99.90;;;;;;5087970;28;20035;-45
2022/01/07 02:17:29;;;;;;;16.88;4.60;;;1.80;99.90;;;;;;5086930;28;20028;-44
2022/01/07 02:19:55;;;;;;;30.27;6.38;;;1.80;99.90;;;;;;5088525;28;20024;-46
2022/01/07 02:22:23;;;;;;;25.88;5.85;;;1.80;99.90;;;;;;5087656;28;20093;-45
2022/01/07 02:24:49;;;;;;;13.20;5.30;;;1.80;99.90;;;;;;5088275;28;20115;-45
2022/01/07 02:27:15;;;;;;;17.90;5.20;;;1.70;99.90;;;;;;5087498;28;20115;-45
2022/01/07 02:29:44;;;;;;;15.93;5.38;;;1.80;99.90;;;;;;5087992;28;20024;-44
2022/01/07 02:32:10;;;;;;;24.77;5.93;;;1.70;99.90;;;;;;5081287;28;20060;-46
2022/01/07 02:34:36;;;;;;;24.30;5.28;;;1.80;99.90;;;;;;5079289;28;20091;-44
2022/01/07 02:37:01;;;;;;;20.13;5.30;;;1.80;99.90;;;;;;5088074;28;20389;-44
2022/01/07 02:39:27;;;;;;;19.05;6.88;;;1.80;99.90;;;;;;5086967;28;20024;-46
2022/01/07 02:41:52;;;;;;;21.73;5.20;;;1.80;99.90;;;;;;5087397;28;20346;-45
2022/01/07 02:44:18;;;;;;;18.83;5.88;;;1.70;99.90;;;;;;5087766;28;20066;-44
2022/01/07 02:46:45;;;;;;;21.33;5.78;;;1.70;99.90;;;;;;5087546;28;20064;-51
2022/01/07 02:49:12;;;;;;;15.23;6.03;;;1.80;99.90;;;;;;5086965;28;20412;-45
2022/01/07 02:51:38;;;;;;;20.40;5.18;;;1.80;99.90;;;;;;5087501;28;20024;-45
2022/01/07 02:54:05;;;;;;;17.60;5.43;;;1.80;99.90;;;;;;5087477;28;20085;-45
2022/01/07 02:56:31;;;;;;;21.88;5.10;;;1.80;99.90;;;;;;5087310;28;20031;-44
2022/01/07 02:58:56;;;;;;;18.42;5.88;;;1.80;99.90;;;;;;5085726;28;20025;-45
2022/01/07 03:01:22;;;;;;;18.73;5.10;;;1.80;99.90;;;;;;5086995;28;20032;-45
2022/01/07 03:03:48;;;;;;;20.50;5.45;;;1.80;99.90;;;;;;5075658;28;20405;-45
2022/01/07 03:06:13;;;;;;;23.23;5.38;;;1.90;99.90;;;;;;5086423;28;20472;-45
2022/01/07 03:08:39;;;;;;;21.75;5.15;;;1.90;99.90;;;;;;5086874;28;20496;-45
2022/01/07 03:11:05;;;;;;;23.80;5.25;;;1.90;99.90;;;;;;5087454;28;20060;-45
2022/01/07 03:13:31;;;;;;;15.20;5.03;;;1.90;99.90;;;;;;5087310;28;20012;-44
2022/01/07 03:15:56;;;;;;;23.00;5.35;;;1.90;99.90;;;;;;5085675;28;20488;-44
2022/01/07 03:18:22;;;;;;;17.23;5.55;;;2.00;99.90;;;;;;5087042;28;20024;-44
2022/01/07 03:20:48;;;;;;;18.60;6.00;;;2.10;99.90;;;;;;5087070;28;20097;-45
2022/01/07 03:23:14;;;;;;;16.60;5.25;;;2.10;99.90;;;;;;5090122;28;20027;-44
2022/01/07 03:25:46;;;;;;;18.52;5.13;;;2.10;99.90;;;;;;5091926;28;20028;-51
2022/01/07 03:28:12;;;;;;;15.00;4.25;;;2.10;99.90;;;;;;5090727;28;20362;-45
2022/01/07 03:30:39;;;;;;;19.60;5.28;;;2.10;99.90;;;;;;5091366;28;20713;-45
2022/01/07 03:33:05;;;;;;;21.17;5.68;;;2.10;99.90;;;;;;5082016;28;20082;-45
2022/01/07 03:35:31;;;;;;;22.70;6.03;;;2.10;99.90;;;;;;5066590;28;20255;-45
2022/01/07 03:37:57;;;;;;;17.83;5.10;;;2.20;99.90;;;;;;5060818;28;20023;-45
2022/01/07 03:40:22;;;;;;;15.57;4.82;;;2.30;99.90;;;;;;5059712;28;20017;-44
2022/01/07 03:42:49;;;;;;;19.60;5.15;;;2.30;99.90;;;;;;5060074;28;20095;-45
2022/01/07 03:45:17;;;;;;;29.73;6.30;;;2.30;99.90;;;;;;5061297;28;20028;-45
2022/01/07 03:47:42;;;;;;;17.00;4.68;;;2.30;99.90;;;;;;5058531;28;20028;-49
2022/01/07 03:50:11;;;;;;;16.80;4.43;;;2.30;99.90;;;;;;5058099;28;20025;-46
2022/01/07 03:52:37;;;;;;;25.80;5.10;;;2.30;99.90;;;;;;5060045;28;20029;-45
2022/01/07 03:55:06;;;;;;;22.05;6.13;;;2.30;99.90;;;;;;5057954;28;20126;-45
2022/01/07 03:57:32;;;;;;;14.38;4.55;;;2.30;99.90;;;;;;5057815;28;20362;-45
2022/01/07 03:59:57;;;;;;;17.75;4.82;;;2.30;99.90;;;;;;5061256;28;20113;-45
2022/01/07 04:02:23;;;;;;;13.90;4.68;;;2.30;99.90;;;;;;5057586;28;20028;-45
2022/01/07 04:04:48;;;;;;;20.60;4.82;;;2.30;99.90;;;;;;5060219;28;20490;-45
2022/01/07 04:07:14;;;;;;;17.88;5.07;;;2.30;99.90;;;;;;5064667;28;20104;-45
2022/01/07 04:09:40;;;;;;;19.83;4.57;;;2.20;99.90;;;;;;5070371;28;20509;-45
2022/01/07 04:12:06;;;;;;;11.73;5.05;;;2.20;99.90;;;;;;5069137;28;20121;-45
2022/01/07 04:14:31;;;;;;;26.20;4.85;;;2.30;99.90;;;;;;5070016;28;20116;-45
2022/01/07 04:16:59;;;;;;;15.93;4.63;;;2.40;99.90;;;;;;5063271;28;20107;-46
2022/01/07 04:19:25;;;;;;;18.23;5.28;;;2.40;99.90;;;;;;5060777;28;20033;-45
2022/01/07 04:21:51;;;;;;;15.77;4.38;;;2.40;99.90;;;;;;5059337;28;20028;-46
2022/01/07 04:24:17;;;;;;;9.32;4.40;;;2.40;99.90;;;;;;5069673;28;20428;-47
2022/01/07 04:26:43;;;;;;;20.48;5.25;;;2.40;99.90;;;;;;5070049;28;20033;-45
2022/01/07 04:29:09;;;;;;;15.52;4.88;;;2.40;99.90;;;;;;5068070;28;20183;-45
2022/01/07 04:31:34;;;;;;;18.25;4.53;;;2.40;99.90;;;;;;5069504;28;20108;-45
2022/01/07 04:34:00;;;;;;;17.13;5.10;;;2.50;99.90;;;;;;5078041;28;20578;-48
2022/01/07 04:36:25;;;;;;;31.75;6.15;;;2.50;99.90;;;;;;5080963;28;20603;-45
2022/01/07 04:38:51;;;;;;;12.55;4.18;;;2.50;99.90;;;;;;5069135;28;20059;-45
2022/01/07 04:41:17;;;;;;;13.50;4.00;;;2.50;99.90;;;;;;5069168;28;20021;-45
2022/01/07 04:43:42;;;;;;;16.85;4.82;;;2.50;99.90;;;;;;5066987;28;20082;-45
2022/01/07 04:46:08;;;;;;;16.92;4.22;;;2.50;99.90;;;;;;5069209;28;20028;-46
2022/01/07 04:48:33;;;;;;;14.30;5.75;;;2.50;99.90;;;;;;5066484;28;20033;-44
2022/01/07 04:50:59;;;;;;;19.17;4.88;;;2.40;99.90;;;;;;5051485;28;20035;-48
2022/01/07 04:53:26;;;;;;;17.73;4.20;;;2.40;99.90;;;;;;5069213;28;20030;-45
2022/01/07 04:55:53;;;;;;;21.45;5.35;;;2.40;99.90;;;;;;5069347;28;20113;-45
2022/01/07 04:58:18;;;;;;;30.42;4.88;;;2.40;99.90;;;;;;5069078;28;20024;-44
2022/01/07 05:00:44;;;;;;;17.13;4.38;;;2.40;99.90;;;;;;5068944;28;20500;-45
2022/01/07 05:03:12;;;;;;;17.85;5.13;;;2.40;99.90;;;;;;5076647;28;20426;-46
2022/01/07 05:05:37;;;;;;;14.23;4.38;;;2.40;99.90;;;;;;5083410;28;20084;-46
2022/01/07 05:08:04;;;;;;;15.20;3.72;;;2.50;99.90;;;;;;5088879;28;20028;-45
2022/01/07 05:10:29;;;;;;;16.48;4.25;;;2.50;99.90;;;;;;5088131;28;20354;-46
2022/01/07 05:12:56;;;;;;;26.13;4.18;;;2.50;99.90;;;;;;5081754;28;20035;-45
2022/01/07 05:15:23;;;;;;;11.77;3.88;;;2.50;99.90;;;;;;5072380;28;20020;-44
2022/01/07 05:17:49;;;;;;;18.15;4.32;;;2.50;99.90;;;;;;5086835;28;20028;-45
2022/01/07 05:20:15;;;;;;;13.73;3.88;;;2.60;99.90;;;;;;5087946;28;20024;-45
2022/01/07 05:22:41;;;;;;;12.10;4.30;;;2.60;99.90;;;;;;5089125;28;20028;-46
2022/01/07 05:25:08;;;;;;;16.90;4.45;;;2.60;99.90;;;;;;5089201;28;20036;-45
2022/01/07 05:27:33;;;;;;;14.85;4.35;;;2.60;99.90;;;;;;5088283;28;20051;-44
2022/01/07 05:29:59;;;;;;;12.00;3.75;;;2.70;99.90;;;;;;5089331;28;20027;-46
2022/01/07 05:32:25;;;;;;;10.68;4.30;;;2.70;99.90;;;;;;5088657;28;20322;-46
2022/01/07 05:34:50;;;;;;;13.32;3.60;;;2.70;99.90;;;;;;5087580;28;20107;-45
2022/01/07 05:37:16;;;;;;;10.40;3.63;;;2.80;99.90;;;;;;5088139;28;20032;-46
2022/01/07 05:39:41;;;;;;;13.75;4.00;;;2.80;99.90;;;;;;5087007;28;20158;-45
2022/01/07 05:42:07;;;;;;;16.30;3.33;;;2.80;99.90;;;;;;5081994;28;20024;-45
2022/01/07 05:44:33;;;;;;;10.05;3.67;;;2.90;99.90;;;;;;5079056;28;20020;-44
2022/01/07 05:46:59;;;;;;;8.52;3.25;;;2.90;99.90;;;;;;5088576;28;20276;-45
2022/01/07 05:49:24;;;;;;;20.63;3.55;;;3.00;99.90;;;;;;5087239;28;20562;-45
2022/01/07 05:51:50;;;;;;;14.25;4.00;;;3.10;99.90;;;;;;5088552;28;20146;-46
2022/01/07 05:54:15;;;;;;;17.85;3.95;;;3.00;99.90;;;;;;5088480;28;20077;-45
2022/01/07 05:56:41;;;;;;;9.77;2.75;;;3.10;99.90;;;;;;5088882;28;20035;-46
2022/01/07 05:59:07;;;;;;;8.85;3.38;;;3.00;99.90;;;;;;5086502;28;20478;-45
2022/01/07 06:01:32;;;;;;;16.08;3.50;;;3.10;99.90;;;;;;5088689;28;20024;-45
2022/01/07 06:03:58;;;;;;;9.52;3.30;;;3.10;99.90;;;;;;5088183;28;20255;-45
2022/01/07 06:06:23;;;;;;;10.90;3.72;;;3.10;99.90;;;;;;5088394;28;20551;-46
2022/01/07 06:08:49;;;;;;;11.40;3.83;;;3.20;99.90;;;;;;5088025;28;20239;-46
2022/01/07 06:11:14;;;;;;;8.55;3.65;;;3.20;99.90;;;;;;5085881;28;20055;-44
2022/01/07 06:13:40;;;;;;;14.88;3.50;;;3.20;99.90;;;;;;5076331;28;20095;-45
2022/01/07 06:16:06;;;;;;;10.57;3.35;;;3.20;99.90;;;;;;5085137;28;20111;-43
2022/01/07 06:18:32;;;;;;;10.90;3.85;;;3.20;99.90;;;;;;5087957;28;20024;-43
2022/01/07 06:20:57;;;;;;;10.88;3.30;;;3.20;99.90;;;;;;5087593;28;20508;-46
2022/01/07 06:23:23;;;;;;;10.32;3.80;;;3.20;99.90;;;;;;5086836;28;20020;-45
2022/01/07 06:25:49;;;;;;;18.27;4.68;;;3.30;99.90;;;;;;5087933;28;20028;-47
2022/01/07 06:28:16;;;;;;;13.18;3.97;;;3.30;99.90;;;;;;5085863;28;20121;-46
2022/01/07 06:30:41;;;;;;;9.40;3.30;;;3.30;99.90;;;;;;5086969;28;20020;-46
2022/01/07 06:33:07;;;;;;;8.63;3.70;;;3.30;99.90;;;;;;5087947;28;20473;-45
2022/01/07 06:35:32;;;;;;;9.50;4.25;;;3.30;99.90;;;;;;5087625;28;20038;-50
2022/01/07 06:37:58;;;;;;;11.02;4.15;;;3.30;99.90;;;;;;5087036;28;20106;-45
2022/01/07 06:40:23;;;;;;;14.90;4.55;;;3.30;99.90;;;;;;5088055;28;20027;-45
2022/01/07 06:42:49;;;;;;;9.40;4.05;;;3.30;99.90;;;;;;5081329;28;20024;-47
2022/01/07 06:45:14;;;;;;;11.02;3.85;;;3.30;99.90;;;;;;5078782;28;20023;-49
2022/01/07 06:47:40;;;;;;;10.63;3.90;;;3.30;99.90;;;;;;5087042;28;20107;-46
2022/01/07 06:50:07;;;;;;;10.57;4.20;;;3.40;99.90;;;;;;5087259;28;20432;-46
2022/01/07 06:52:32;;;;;;;8.52;3.90;;;3.40;99.90;;;;;;5087599;28;20028;-49
2022/01/07 06:54:58;;;;;;;11.60;4.07;;;3.50;99.90;;;;;;5087542;28;20020;-48
2022/01/07 06:57:23;;;;;;;12.45;3.72;;;3.40;99.90;;;;;;5092074;28;20077;-48
2022/01/07 06:59:49;;;;;;;13.52;3.95;;;3.40;99.90;;;;;;5094281;28;20081;-46
2022/01/07 07:02:14;;;;;;;9.32;4.07;;;3.40;99.90;;;;;;5073343;28;20021;-45
2022/01/07 07:04:40;;;;;;;12.50;4.80;;;3.40;99.90;;;;;;5061127;28;20112;-45
2022/01/07 07:07:06;;;;;;;14.07;4.30;;;3.40;99.90;;;;;;5063794;28;20020;-46
2022/01/07 07:09:31;;;;;;;11.38;4.97;;;3.30;99.90;;;;;;5065061;28;20032;-47
2022/01/07 07:11:57;;;;;;;10.35;4.15;;;3.30;99.90;;;;;;5064035;28;20448;-45
2022/01/07 07:14:23;;;;;;;23.63;6.00;;;3.40;99.90;;;;;;5073437;28;20086;-45
2022/01/07 07:16:48;;;;;;;12.43;4.82;;;3.30;99.90;;;;;;5062702;28;20043;-46
2022/01/07 07:19:14;;;;;;;11.20;5.85;;;3.30;99.90;;;;;;5063506;28;20501;-46
2022/01/07 07:21:40;;;;;;;14.43;4.72;;;3.30;99.90;;;;;;5062830;28;20118;-46
2022/01/07 07:24:06;;;;;;;16.38;5.97;;;3.30;99.90;;;;;;5061569;28;20028;-46
2022/01/07 07:26:32;;;;;;;13.23;4.97;;;3.20;99.90;;;;;;5063095;28;20031;-48
2022/01/07 07:28:57;;;;;;;16.10;5.40;;;3.20;99.90;;;;;;5061462;28;20032;-47
2022/01/07 07:31:23;;;;;;;13.98;5.30;;;3.20;99.90;;;;;;5062487;28;20033;-48
2022/01/07 07:36:29;;;;;;;20.88;5.93;;;3.10;99.90;;;;;;5062252;28;20032;-47
2022/01/07 07:38:56;;;;;;;10.68;4.97;;;3.10;99.90;;;;;;5061553;28;20028;-45
2022/01/07 07:41:22;;;;;;;13.52;5.70;;;3.00;99.90;;;;;;5064077;28;20112;-46
2022/01/07 07:43:49;;;;;;;14.93;6.05;;;3.00;99.90;;;;;;5081303;28;20214;-46
2022/01/07 07:46:15;;;;;;;14.15;5.57;;;2.90;99.90;;;;;;5081319;28;20122;-46
2022/01/07 07:48:41;;;;;;;9.77;5.88;;;2.90;99.90;;;;;;5075237;28;20108;-47
2022/01/07 07:51:06;;;;;;;15.88;5.80;;;3.00;99.90;;;;;;5087901;28;20031;-47
2022/01/07 07:53:32;;;;;;;13.68;5.60;;;3.00;99.90;;;;;;5082493;28;20020;-48
2022/01/07 07:55:58;;;;;;;16.30;5.93;;;3.00;99.90;;;;;;5080822;28;20521;-48
2022/01/07 07:58:27;;;;;;;14.60;6.10;;;3.00;99.90;;;;;;5089417;28;20095;-45
2022/01/07 08:00:52;;;;;;;16.50;6.63;;;3.00;99.90;;;;;;5060118;28;20356;-46
2022/01/07 08:03:20;;;;;;;17.10;7.38;;;3.00;99.90;;;;;;5077872;28;20203;-46
2022/01/07 08:05:46;;;;;;;17.15;6.40;;;3.00;99.90;;;;;;5064618;28;20533;-46
2022/01/07 08:08:11;;;;;;;9.02;5.32;;;3.00;99.90;;;;;;5061025;28;20100;-45
2022/01/07 08:10:44;;;;;;;19.95;6.57;;;2.90;99.90;;;;;;5061042;28;20028;-47
2022/01/07 08:18:23;;;;;;;16.77;5.50;;;2.80;99.90;;;;;;5069052;28;20040;-46
2022/01/07 08:20:50;;;;;;;22.48;7.53;;;2.70;99.90;;;;;;5070061;28;20012;-47
2022/01/07 08:23:15;;;;;;;26.08;6.32;;;2.70;99.90;;;;;;5070460;28;20115;-47
2022/01/07 08:25:42;;;;;;;15.45;6.78;;;2.70;99.90;;;;;;5068790;28;20123;-48
2022/01/07 08:28:08;;;;;;;13.63;6.32;;;2.70;99.90;;;;;;5069569;28;20059;-49
2022/01/07 08:30:48;;;;;;;21.85;6.70;;;2.60;99.90;;;;;;5069822;28;20036;-51
2022/01/07 08:35:57;;;;;;;17.48;6.30;;;2.50;99.90;;;;;;5069203;28;20112;-48
2022/01/07 08:38:23;;;;;;;16.88;6.55;;;2.50;99.90;;;;;;5065177;28;20452;-47
2022/01/07 08:40:48;;;;;;;14.20;6.72;;;2.50;99.90;;;;;;5069764;28;20024;-48
2022/01/07 08:43:14;;;;;;;12.80;6.32;;;2.50;99.90;;;;;;5077866;28;20052;-48
2022/01/07 08:45:41;;;;;;;13.05;6.60;;;2.50;99.90;;;;;;5083789;28;20016;-52
2022/01/07 08:48:07;;;;;;;10.10;5.18;;;2.50;99.90;;;;;;5088993;28;20567;-48
2022/01/07 08:50:32;;;;;;;18.65;7.07;;;2.40;99.90;;;;;;5090096;28;20103;-52
2022/01/07 08:53:01;;;;;;;10.07;5.60;;;2.30;99.90;;;;;;5090054;28;20363;-53
2022/01/07 08:55:27;;;;;;;17.40;7.15;;;2.30;99.90;;;;;;5088642;28;20028;-50
2022/01/07 08:57:52;;;;;;;14.55;6.53;;;2.30;99.90;;;;;;5089007;28;20016;-51
2022/01/07 09:00:18;;;;;;;15.52;7.20;;;2.20;99.90;;;;;;5089201;28;20031;-49
2022/01/07 09:02:43;;;;;;;12.02;6.15;;;2.10;99.90;;;;;;5089477;28;20032;-51
2022/01/07 09:05:09;;;;;;;13.63;6.20;;;2.10;99.90;;;;;;5089597;28;20024;-49
2022/01/07 09:07:34;;;;;;;12.50;6.03;;;2.10;99.90;;;;;;5088905;28;20032;-52
2022/01/07 09:10:00;;;;;;;13.10;6.25;;;2.20;99.90;;;;;;5089914;28;20099;-52
2022/01/07 09:12:25;;;;;;;12.60;6.60;;;2.20;99.90;;;;;;5085156;28;20027;-47
2022/01/07 09:14:51;;;;;;;13.45;5.85;;;2.20;99.90;;;;;;5079594;28;20323;-48
2022/01/07 09:17:16;;;;;;;13.95;5.78;;;2.20;99.90;;;;;;5080094;28;20024;-49
2022/01/07 09:19:42;;;;;;;16.35;6.70;;;2.20;99.90;;;;;;5088300;28;20027;-47
2022/01/07 09:22:07;;;;;;;16.83;6.40;;;2.10;99.90;;;;;;5088621;28;20024;-51
2022/01/07 09:24:33;;;;;;;12.98;6.50;;;2.10;99.90;;;;;;5088899;28;20522;-47
2022/01/07 09:26:58;;;;;;;12.93;6.45;;;2.10;99.90;;;;;;5088938;28;20055;-48
2022/01/07 09:29:26;;;;;;;12.18;6.38;;;2.10;99.90;;;;;;5088065;28;20048;-48
2022/01/07 09:31:52;;;;;;;14.85;6.95;;;2.10;99.90;;;;;;5088797;28;20031;-48
2022/01/07 09:34:17;;;;;;;9.27;5.57;;;2.20;99.90;;;;;;5075661;28;20393;-50
2022/01/07 09:36:43;;;;;;;15.48;5.60;;;2.20;99.90;;;;;;5068684;28;20505;-48
2022/01/07 09:39:09;;;;;;;12.48;6.70;;;2.20;99.90;;;;;;5067856;28;20257;-48
2022/01/07 09:41:34;;;;;;;9.57;5.80;;;2.30;99.90;;;;;;5068548;28;20581;-48
2022/01/07 09:44:01;;;;;;;14.68;6.32;;;2.40;99.90;;;;;;5064984;28;20074;-48
2022/01/07 09:46:27;;;;;;;13.35;6.65;;;2.40;99.90;;;;;;5050070;28;20074;-47
2022/01/07 09:48:53;;;;;;;14.35;6.40;;;2.50;99.90;;;;;;5047495;28;20040;-48
2022/01/07 09:51:18;;;;;;;15.57;5.97;;;2.60;99.90;;;;;;5048545;28;20439;-48
2022/01/07 09:53:44;;;;;;;9.15;5.75;;;2.60;99.90;;;;;;5047785;28;20364;-49
2022/01/07 09:56:11;;;;;;;12.32;6.20;;;2.60;99.90;;;;;;5048576;28;20365;-48
2022/01/07 09:58:37;;;;;;;13.32;5.72;;;2.60;99.90;;;;;;5054514;28;20025;-48
2022/01/07 10:01:06;;;;;;;12.75;6.53;;;2.60;99.90;;;;;;5067096;28;20025;-50
2022/01/07 10:03:41;;;;;;;12.45;6.07;;;2.70;99.90;;;;;;5073290;28;20185;-47
2022/01/07 10:06:20;;;;;;;10.90;5.72;;;2.80;99.90;;;;;;5073521;28;20040;-49
2022/01/07 10:08:58;;;;;;;8.93;5.47;;;2.80;99.90;;;;;;5045973;28;20079;-47
2022/01/07 10:11:24;;;;;;;10.82;6.47;;;2.80;99.90;;;;;;5047946;28;20025;-48
2022/01/07 10:14:11;;;;;;;11.93;5.93;;;2.90;99.90;;;;;;5073566;28;20089;-46
2022/01/07 10:16:54;;;;;;;12.23;6.25;;;2.90;99.90;;;;;;5056332;28;20089;-50
2022/01/07 10:19:41;;;;;;;11.75;6.63;;;2.90;99.90;;;;;;5067166;28;20028;-48
2022/01/07 10:22:12;;;;;;;12.15;5.90;;;3.00;99.90;;;;;;5067614;28;20025;-48
2022/01/07 10:25:00;;;;;;;14.52;6.97;;;3.10;99.90;;;;;;5066283;28;20035;-47
2022/01/07 10:27:34;;;;;;;11.15;6.63;;;3.10;99.90;;;;;;5065088;28;20494;-47
2022/01/07 10:30:00;;;;;;;15.70;6.88;;;3.10;99.90;;;;;;5067391;28;20046;-47
2022/01/07 10:32:29;;;;;;;13.57;6.57;;;3.10;99.90;;;;;;5066628;28;20036;-50
2022/01/07 10:35:17;;;;;;;15.50;6.25;;;3.10;99.90;;;;;;5051037;28;20382;-46
2022/01/07 10:37:50;;;;;;;15.45;6.45;;;3.20;99.90;;;;;;5046977;28;20217;-47
2022/01/07 10:40:21;;;;;;;9.45;6.10;;;3.20;99.90;;;;;;5045297;28;20510;-48
2022/01/07 10:42:47;;;;;;;15.80;6.82;;;3.20;99.90;;;;;;5064188;28;20024;-47
2022/01/07 10:45:13;;;;;;;16.33;6.70;;;3.20;99.90;;;;;;5079297;28;20032;-47
2022/01/07 10:47:39;;;;;;;13.13;5.32;;;3.20;99.90;;;;;;5087288;28;20490;-47
2022/01/07 10:50:15;;;;;;;13.45;6.60;;;3.20;99.90;;;;;;5087652;28;20263;-47
2022/01/07 10:52:41;;;;;;;14.73;7.18;;;3.20;99.90;;;;;;5087628;28;20028;-47
2022/01/07 10:55:18;;;;;;;11.93;5.95;;;3.20;99.90;;;;;;5085690;28;20174;-46
2022/01/07 10:57:45;;;;;;;11.88;7.22;;;3.20;99.90;;;;;;5087151;28;20054;-47
2022/01/07 11:00:14;;;;;;;12.00;5.78;;;3.20;99.90;;;;;;5085805;28;20060;-47
2022/01/07 11:02:40;;;;;;;9.45;5.75;;;3.30;99.90;;;;;;5086479;28;20405;-47
2022/01/07 11:05:06;;;;;;;13.82;7.70;;;3.30;99.90;;;;;;5086711;28;20032;-47
2022/01/07 11:07:33;;;;;;;12.07;7.10;;;3.40;99.90;;;;;;5086103;28;20051;-47
2022/01/07 11:09:59;;;;;;;14.00;6.72;;;3.40;99.90;;;;;;5069460;28;20124;-48
2022/01/07 11:12:26;;;;;;;14.98;7.10;;;3.40;99.90;;;;;;5070211;28;20020;-47
2022/01/07 11:14:52;;;;;;;13.73;7.00;;;3.50;99.90;;;;;;5078546;28;20090;-48
2022/01/07 11:17:21;;;;;;;11.30;6.38;;;3.60;99.90;;;;;;5084621;28;20062;-48
2022/01/07 11:19:52;;;;;;;12.57;6.07;;;3.70;99.90;;;;;;5086406;28;20035;-49
2022/01/07 11:22:21;;;;;;;11.07;6.65;;;3.80;99.90;;;;;;5086181;28;20023;-48
2022/01/07 11:25:04;;;;;;;15.05;6.53;;;3.90;99.90;;;;;;5086251;28;20048;-47
2022/01/07 11:27:30;;;;;;;10.40;6.65;;;4.00;99.90;;;;;;5084253;28;20077;-47
2022/01/07 11:30:08;;;;;;;12.05;5.38;;;4.20;99.90;;;;;;5086435;28;20028;-47
2022/01/07 11:32:49;;;;;;;10.38;6.20;;;4.10;99.90;;;;;;5086959;28;20024;-47
2022/01/07 11:35:17;;;;;;;11.95;5.43;;;4.20;99.90;;;;;;5086688;28;20028;-47
2022/01/07 11:37:47;;;;;;;9.35;5.75;;;4.40;99.90;;;;;;5086004;28;20021;-47
2022/01/07 11:40:39;;;;;;;7.82;5.15;;;4.40;99.90;;;;;;5086796;28;20104;-48
2022/01/07 11:43:19;;;;;;;11.35;5.80;;;4.40;99.90;;;;;;5082663;28;20040;-46
2022/01/07 11:45:46;;;;;;;15.13;6.60;;;4.40;99.90;;;;;;5060019;28;20049;-46
2022/01/07 11:48:22;;;;;;;9.82;6.10;;;4.30;99.90;;;;;;5049576;28;20493;-48
2022/01/07 11:51:00;;;;;;;9.70;5.80;;;4.30;99.90;;;;;;5049873;28;20072;-48
2022/01/07 11:53:48;;;;;;;8.65;5.28;;;4.20;99.90;;;;;;5049469;28;20497;-47
2022/01/07 11:56:15;;;;;;;10.65;6.18;;;4.10;99.90;;;;;;5049844;28;20033;-47
2022/01/07 11:58:47;;;;;;;9.90;6.03;;;4.00;99.90;;;;;;5060070;28;20123;-51
2022/01/07 12:01:36;;;;;;;11.95;6.00;;;4.10;99.90;;;;;;5081541;28;20020;-48
2022/01/07 12:04:29;;;;;;;10.57;5.65;;;4.00;99.90;;;;;;5089954;28;20393;-48
2022/01/07 12:06:59;;;;;;;16.45;7.93;;;4.10;99.90;;;;;;5090029;28;20515;-48
2022/01/07 12:09:35;;;;;;;8.82;6.07;;;4.00;99.90;;;;;;5089795;28;20017;-48
2022/01/07 12:12:05;;;;;;;8.80;5.75;;;3.90;99.90;;;;;;5089999;28;20028;-48
2022/01/07 12:14:43;;;;;;;10.65;6.03;;;3.90;99.90;;;;;;5089386;28;20024;-47
2022/01/07 12:17:13;;;;;;;9.05;5.90;;;3.90;99.90;;;;;;5089797;28;20016;-49
2022/01/07 12:19:48;;;;;;;10.15;6.53;;;3.80;99.90;;;;;;5088956;28;20511;-49
2022/01/07 12:22:16;;;;;;;11.23;6.97;;;3.90;99.90;;;;;;5089548;28;20047;-48
2022/01/07 12:24:43;;;;;;;13.00;6.47;;;4.00;99.90;;;;;;5089886;28;20013;-48
2022/01/07 12:27:09;;;;;;;11.77;6.20;;;4.00;99.90;;;;;;5087669;28;20032;-50
2022/01/07 12:29:38;;;;;;;9.95;6.05;;;4.00;99.90;;;;;;5079574;28;20154;-47
2022/01/07 12:32:05;;;;;;;8.75;5.82;;;4.00;99.90;;;;;;5087150;28;20024;-47
2022/01/07 12:34:34;;;;;;;12.65;6.60;;;3.90;99.90;;;;;;5089300;28;20035;-49
2022/01/07 12:37:05;;;;;;;11.50;6.38;;;3.90;99.90;;;;;;5088986;28;20497;-48
2022/01/07 12:39:36;;;;;;;13.77;6.45;;;3.90;99.90;;;;;;5081410;28;20029;-47
2022/01/07 12:42:01;;;;;;;11.73;6.40;;;4.00;99.90;;;;;;5052126;28;20514;-47
2022/01/07 12:44:34;;;;;;;11.27;6.63;;;4.10;99.90;;;;;;5069186;28;20044;-47
2022/01/07 12:46:59;;;;;;;8.95;5.95;;;4.00;99.90;;;;;;5061789;28;20144;-48
2022/01/07 12:49:53;;;;;;;9.93;6.00;;;4.00;99.90;;;;;;5049880;28;20039;-47
2022/01/07 12:52:29;;;;;;;8.25;5.03;;;4.00;99.90;;;;;;5065223;28;20067;-48
2022/01/07 12:55:08;;;;;;;11.80;5.88;;;4.00;99.90;;;;;;5068640;28;20102;-47
2022/01/07 12:57:46;;;;;;;10.27;6.10;;;4.00;99.90;;;;;;5068265;28;20021;-49
2022/01/07 13:00:26;;;;;;;13.52;6.47;;;4.00;99.90;;;;;;5075060;28;20052;-47